createdAt,value
2023-05-04T00:00:33.505Z,10.47
2023-05-04T00:04:38.645Z,10.46
2023-05-04T00:08:41.762Z,10.46
2023-05-04T00:12:46.321Z,10.49
2023-05-04T00:16:49.490Z,10.47
2023-05-04T00:20:54.096Z,10.40
2023-05-04T00:24:57.049Z,10.38
2023-05-04T00:29:00.145Z,10.36
2023-05-04T00:33:03.160Z,10.33
2023-05-04T00:37:08.089Z,10.28
2023-05-04T00:41:11.225Z,10.25
2023-05-04T00:45:16.152Z,10.20
2023-05-04T00:49:21.421Z,10.18
2023-05-04T00:53:26.438Z,10.14
2023-05-04T00:57:29.710Z,10.12
2023-05-04T01:01:32.949Z,10.06
2023-05-04T01:05:39.792Z,10.04
2023-05-04T01:09:47.294Z,9.97
2023-05-04T01:13:52.713Z,9.93
2023-05-04T01:17:55.899Z,9.88
2023-05-04T01:22:00.448Z,9.86
2023-05-04T01:26:11.379Z,9.83
2023-05-04T01:30:20.150Z,9.76
2023-05-04T01:34:24.189Z,9.74
2023-05-04T01:38:29.692Z,9.73
2023-05-04T01:42:32.850Z,9.68
2023-05-04T01:46:36.048Z,9.65
2023-05-04T01:50:39.236Z,9.63
2023-05-04T01:54:43.771Z,9.60
2023-05-04T01:58:46.957Z,9.54
2023-05-04T02:02:50.171Z,9.52
2023-05-04T02:06:55.751Z,9.48
2023-05-04T02:11:00.514Z,9.48
2023-05-04T02:15:03.637Z,9.46
2023-05-04T02:19:07.312Z,9.44
2023-05-04T02:23:11.660Z,9.41
2023-05-04T02:27:16.150Z,9.38
2023-05-04T02:35:25.196Z,9.30
2023-05-04T02:39:28.270Z,9.23
2023-05-04T02:43:32.705Z,9.18
2023-05-04T02:47:36.163Z,9.15
2023-05-04T02:51:39.305Z,9.08
2023-05-04T02:55:42.456Z,9.06
2023-05-04T02:59:46.910Z,9.03
2023-05-04T03:03:49.981Z,8.99
2023-05-04T03:07:53.271Z,8.92
2023-05-04T03:11:56.744Z,8.89
2023-05-04T03:16:01.428Z,8.89
2023-05-04T03:20:05.503Z,8.85
2023-05-04T03:24:09.908Z,8.81
2023-05-04T03:28:13.725Z,8.75
2023-05-04T03:32:19.610Z,8.67
2023-05-04T03:36:22.976Z,8.66
2023-05-04T03:40:26.734Z,8.64
2023-05-04T03:44:30.838Z,8.64
2023-05-04T03:48:35.339Z,8.62
2023-05-04T03:52:40.914Z,8.60
2023-05-04T03:56:44.816Z,8.58
2023-05-04T04:00:51.599Z,8.57
2023-05-04T04:04:56.166Z,8.55
2023-05-04T04:08:59.611Z,8.52
2023-05-04T04:13:02.814Z,8.50
2023-05-04T04:17:06.421Z,8.47
2023-05-04T04:21:11.275Z,8.47
2023-05-04T04:25:15.364Z,8.49
2023-05-04T04:29:18.912Z,8.45
2023-05-04T04:33:21.969Z,8.44
2023-05-04T04:37:26.679Z,8.44
2023-05-04T04:41:29.734Z,8.45
2023-05-04T04:45:34.045Z,8.48
2023-05-04T04:49:38.608Z,8.49
2023-05-04T04:53:43.116Z,8.52
2023-05-04T04:57:46.165Z,8.51
2023-05-04T05:01:49.872Z,8.50
2023-05-04T05:05:52.996Z,8.55
2023-05-04T05:09:57.832Z,8.57
2023-05-04T05:14:00.893Z,8.63
2023-05-04T05:18:04.019Z,8.70
2023-05-04T05:22:07.174Z,8.79
2023-05-04T05:26:11.813Z,8.90
2023-05-04T05:30:15.151Z,9.01
2023-05-04T05:34:18.174Z,9.16
2023-05-04T05:38:21.619Z,9.34
2023-05-04T05:42:26.006Z,9.60
2023-05-04T05:46:29.172Z,9.77
2023-05-04T05:50:32.176Z,9.90
2023-05-04T05:54:35.873Z,10.10
2023-05-04T05:58:40.655Z,10.30
2023-05-04T06:02:43.770Z,10.45
2023-05-04T06:06:46.832Z,10.68
2023-05-04T06:10:51.610Z,10.81
2023-05-04T06:14:56.024Z,10.94
2023-05-04T06:18:59.962Z,11.06
2023-05-04T06:23:02.985Z,11.18
2023-05-04T06:27:06.034Z,11.35
2023-05-04T06:31:10.578Z,11.50
2023-05-04T06:35:13.860Z,11.59
2023-05-04T06:39:16.944Z,11.72
2023-05-04T06:43:19.926Z,11.89
2023-05-04T06:47:24.400Z,12.07
2023-05-04T06:51:27.476Z,12.23
2023-05-04T06:55:30.599Z,12.35
2023-05-04T06:59:33.626Z,12.45
2023-05-04T07:03:38.957Z,12.54
2023-05-04T07:07:42.025Z,12.66
2023-05-04T07:11:45.170Z,12.76
2023-05-04T07:15:48.195Z,12.86
2023-05-04T07:19:53.265Z,12.90
2023-05-04T07:23:56.383Z,13.06
2023-05-04T07:27:59.497Z,13.18
2023-05-04T07:32:02.639Z,13.24
2023-05-04T07:36:07.581Z,13.31
2023-05-04T07:40:11.617Z,13.37
2023-05-04T07:44:14.670Z,13.47
2023-05-04T07:48:18.159Z,13.55
2023-05-04T07:52:22.818Z,13.68
2023-05-04T07:56:25.862Z,13.79
2023-05-04T08:00:29.261Z,13.92
2023-05-04T08:04:32.360Z,13.98
2023-05-04T08:08:36.853Z,14.09
2023-05-04T08:12:41.495Z,14.14
2023-05-04T08:16:44.537Z,14.24
2023-05-04T08:20:47.562Z,14.24
2023-05-04T08:24:51.998Z,14.25
2023-05-04T08:28:55.008Z,14.41
2023-05-04T08:32:59.256Z,14.52
2023-05-04T08:37:02.454Z,14.65
2023-05-04T08:41:07.356Z,14.71
2023-05-04T08:45:11.015Z,14.85
2023-05-04T08:49:14.097Z,14.92
2023-05-04T08:53:20.165Z,15.05
2023-05-04T08:57:26.295Z,15.06
2023-05-04T09:01:31.083Z,15.14
2023-05-04T09:05:35.361Z,15.34
2023-05-04T09:09:38.377Z,15.38
2023-05-04T09:13:43.858Z,15.43
2023-05-04T09:17:58.232Z,15.53
2023-05-04T09:22:01.796Z,15.66
2023-05-04T09:26:04.943Z,15.69
2023-05-04T09:30:11.369Z,15.79
2023-05-04T09:34:15.135Z,15.88
2023-05-04T09:38:26.703Z,15.98
2023-05-04T09:42:29.874Z,16.06
2023-05-04T09:46:36.348Z,16.15
2023-05-04T09:50:40.268Z,16.27
2023-05-04T09:54:46.796Z,16.41
2023-05-04T09:58:50.316Z,16.47
2023-05-04T10:02:55.203Z,16.54
2023-05-04T10:06:58.388Z,16.64
2023-05-04T10:11:01.912Z,16.70
2023-05-04T10:15:09.105Z,16.83
2023-05-04T10:19:43.932Z,16.92
2023-05-04T10:24:12.087Z,16.94
2023-05-04T10:28:28.556Z,17.02
2023-05-04T10:32:32.578Z,17.02
2023-05-04T10:36:41.709Z,17.09
2023-05-04T10:40:49.748Z,17.23
2023-05-04T10:44:55.079Z,17.43
2023-05-04T10:48:58.369Z,17.57
2023-05-04T10:53:02.782Z,17.70
2023-05-04T10:57:06.887Z,17.74
2023-05-04T11:01:13.179Z,17.78
2023-05-04T11:05:20.222Z,17.74
2023-05-04T11:09:24.997Z,17.86
2023-05-04T11:13:29.948Z,17.94
2023-05-04T11:17:34.486Z,18.03
2023-05-04T11:21:37.645Z,18.03
2023-05-04T11:25:42.041Z,18.03
2023-05-04T11:29:54.583Z,18.11
2023-05-04T11:33:57.607Z,18.20
2023-05-04T11:38:00.977Z,18.26
2023-05-04T11:42:09.107Z,18.31
2023-05-04T11:46:12.920Z,18.46
2023-05-04T11:50:17.846Z,18.50
2023-05-04T11:54:22.233Z,18.61
2023-05-04T11:58:27.085Z,18.63
2023-05-04T12:02:30.211Z,18.69
2023-05-04T12:06:34.308Z,18.68
2023-05-04T12:10:37.304Z,18.71
2023-05-04T12:14:50.204Z,18.73
2023-05-04T12:19:03.825Z,18.83
2023-05-04T12:23:08.671Z,18.95
2023-05-04T12:27:15.112Z,19.00
2023-05-04T12:31:19.754Z,18.96
2023-05-04T12:35:23.008Z,19.00
2023-05-04T12:39:28.047Z,19.04
2023-05-04T12:43:31.258Z,18.98
2023-05-04T12:47:35.782Z,18.98
2023-05-04T12:51:38.833Z,19.04
2023-05-04T12:55:42.701Z,19.00
2023-05-04T12:59:45.763Z,19.06
2023-05-04T13:03:50.716Z,19.05
2023-05-04T13:07:54.397Z,19.02
2023-05-04T13:11:57.439Z,19.04
2023-05-04T13:16:00.737Z,19.03
2023-05-04T13:20:06.829Z,19.04
2023-05-04T13:24:11.389Z,19.01
2023-05-04T13:28:14.611Z,19.00
2023-05-04T13:32:17.677Z,19.04
2023-05-04T13:36:22.091Z,19.14
2023-05-04T13:40:25.105Z,19.17
2023-05-04T13:44:28.255Z,19.12
2023-05-04T13:48:33.046Z,19.11
2023-05-04T13:52:38.032Z,19.13
2023-05-04T13:56:41.088Z,19.10
2023-05-04T14:00:44.253Z,19.09
2023-05-04T14:04:47.328Z,19.02
2023-05-04T14:08:51.871Z,18.96
2023-05-04T14:12:55.077Z,18.99
2023-05-04T14:16:58.227Z,19.00
2023-05-04T14:21:01.445Z,19.04
2023-05-04T14:25:07.102Z,18.98
2023-05-04T14:29:10.312Z,19.03
2023-05-04T14:33:13.391Z,18.99
2023-05-04T14:37:16.842Z,18.92
2023-05-04T14:41:21.251Z,18.86
2023-05-04T14:45:24.365Z,18.81
2023-05-04T14:49:36.705Z,18.75
2023-05-04T14:53:41.116Z,18.73
2023-05-04T14:57:45.568Z,18.72
2023-05-04T15:01:48.695Z,18.69
2023-05-04T15:05:51.871Z,18.72
2023-05-04T15:09:55.035Z,18.75
2023-05-04T15:13:59.485Z,18.74
2023-05-04T15:18:02.694Z,18.68
2023-05-04T15:22:06.073Z,18.59
2023-05-04T15:26:09.098Z,18.56
2023-05-04T15:30:14.194Z,18.48
2023-05-04T15:34:18.635Z,18.46
2023-05-04T15:38:22.086Z,18.48
2023-05-04T15:42:25.136Z,18.50
2023-05-04T15:46:29.578Z,18.46
2023-05-04T15:50:33.261Z,18.40
2023-05-04T15:54:36.451Z,18.34
2023-05-04T15:58:39.450Z,18.34
2023-05-04T16:02:43.970Z,18.29
2023-05-04T16:06:47.827Z,18.21
2023-05-04T16:10:52.021Z,18.19
2023-05-04T16:14:55.047Z,18.15
2023-05-04T16:18:59.471Z,18.13
2023-05-04T16:23:03.001Z,18.11
2023-05-04T16:27:06.818Z,18.10
2023-05-04T16:31:12.001Z,18.05
2023-05-04T16:35:16.774Z,18.03
2023-05-04T16:39:20.359Z,18.06
2023-05-04T16:43:24.080Z,18.09
2023-05-04T16:47:28.380Z,18.05
2023-05-04T16:51:32.885Z,17.97
2023-05-04T16:55:37.233Z,17.97
2023-05-04T16:59:40.997Z,17.94
2023-05-04T17:03:44.250Z,17.94
2023-05-04T17:07:50.918Z,17.94
2023-05-04T17:11:54.213Z,17.92
2023-05-04T17:15:59.868Z,17.87
2023-05-04T17:20:08.552Z,17.84
2023-05-04T17:24:18.490Z,17.78
2023-05-04T17:28:21.485Z,17.73
2023-05-04T17:32:24.572Z,17.71
2023-05-04T17:36:28.173Z,17.62
2023-05-04T17:40:32.594Z,17.53
2023-05-04T17:44:35.621Z,17.47
2023-05-04T17:48:38.937Z,17.43
2023-05-04T17:52:41.932Z,17.40
2023-05-04T17:56:46.336Z,17.38
2023-05-04T18:00:51.332Z,17.32
2023-05-04T18:04:56.265Z,17.24
2023-05-04T18:08:59.663Z,17.15
2023-05-04T18:13:04.234Z,17.09
2023-05-04T18:17:07.920Z,16.98
2023-05-04T18:21:11.148Z,16.88
2023-05-04T18:25:15.385Z,16.73
2023-05-04T18:29:19.928Z,16.63
2023-05-04T18:33:23.109Z,16.56
2023-05-04T18:37:26.549Z,16.51
2023-05-04T18:41:29.881Z,16.42
2023-05-04T18:45:34.577Z,16.35
2023-05-04T18:49:37.601Z,16.28
2023-05-04T18:53:40.679Z,16.22
2023-05-04T18:57:44.333Z,16.14
2023-05-04T19:01:48.732Z,16.09
2023-05-04T19:05:51.973Z,16.01
2023-05-04T19:09:55.466Z,15.93
2023-05-04T19:13:58.986Z,15.84
2023-05-04T19:18:03.785Z,15.77
2023-05-04T19:22:07.475Z,15.67
2023-05-04T19:26:10.530Z,15.59
2023-05-04T19:30:13.866Z,15.52
2023-05-04T19:34:18.321Z,15.44
2023-05-04T19:38:21.323Z,15.35
2023-05-04T19:42:24.438Z,15.27
2023-05-04T19:46:27.446Z,15.19
2023-05-04T19:50:32.152Z,15.09
2023-05-04T19:54:38.318Z,14.99
2023-05-04T19:58:41.572Z,14.90
2023-05-04T20:02:44.716Z,14.82
2023-05-04T20:06:49.250Z,14.74
2023-05-04T20:10:52.266Z,14.65
2023-05-04T20:14:55.520Z,14.57
2023-05-04T20:18:59.604Z,14.50
2023-05-04T20:23:05.052Z,14.40
2023-05-04T20:27:08.280Z,14.33
2023-05-04T20:31:12.252Z,14.25
2023-05-04T20:35:15.228Z,14.19
2023-05-04T20:39:19.962Z,14.16
2023-05-04T20:43:22.929Z,14.10
2023-05-04T20:47:26.307Z,14.04
2023-05-04T20:51:29.595Z,13.98
2023-05-04T20:55:33.972Z,13.96
2023-05-04T20:59:37.039Z,13.90
2023-05-04T21:03:40.186Z,13.85
2023-05-04T21:07:43.287Z,13.79
2023-05-04T21:11:47.729Z,13.74
2023-05-04T21:15:51.086Z,13.68
2023-05-04T21:19:54.244Z,13.63
2023-05-04T21:23:57.244Z,13.60
2023-05-04T21:28:01.711Z,13.54
2023-05-04T21:32:05.924Z,13.48
2023-05-04T21:36:13.834Z,13.42
2023-05-04T21:40:16.858Z,13.37
2023-05-04T21:44:21.265Z,13.34
2023-05-04T21:48:24.329Z,13.32
2023-05-04T21:52:27.533Z,13.29
2023-05-04T21:56:31.496Z,13.25
2023-05-04T22:00:36.095Z,13.18
2023-05-04T22:04:43.396Z,13.13
2023-05-04T22:08:46.701Z,13.07
2023-05-04T22:12:49.884Z,13.03
2023-05-04T22:16:54.561Z,13.00
2023-05-04T22:20:57.715Z,12.97
2023-05-04T22:25:00.724Z,12.94
2023-05-04T22:29:03.695Z,12.88
2023-05-04T22:33:08.245Z,12.85
2023-05-04T22:37:12.005Z,12.80
2023-05-04T22:41:15.122Z,12.73
2023-05-04T22:45:18.751Z,12.67
2023-05-04T22:49:23.136Z,12.61
2023-05-04T22:53:26.231Z,12.56
2023-05-04T22:57:29.296Z,12.50
2023-05-04T23:01:32.527Z,12.44
2023-05-04T23:05:37.374Z,12.36
2023-05-04T23:09:43.259Z,12.29
2023-05-04T23:13:46.246Z,12.26
2023-05-04T23:17:49.467Z,12.23
2023-05-04T23:21:54.114Z,12.17
2023-05-04T23:25:57.286Z,12.09
2023-05-04T23:30:00.385Z,12.05
2023-05-04T23:34:03.422Z,11.99
2023-05-04T23:38:11.001Z,11.92
2023-05-04T23:42:14.136Z,11.85
2023-05-04T23:46:17.193Z,11.75
2023-05-04T23:50:20.225Z,11.68
2023-05-04T23:54:24.661Z,11.64
2023-05-04T23:58:28.033Z,11.58
